sensor_id;sensor_type;location;lat;lon;timestamp;temperature;humidity
52787;DHT22;38661;53.152;5.846;2023-02-02T00:01:31;5.90;92.80
52787;DHT22;38661;53.152;5.846;2023-02-02T00:03:58;5.90;92.90
52787;DHT22;38661;53.152;5.846;2023-02-02T00:06:25;6.00;92.70
52787;DHT22;38661;53.152;5.846;2023-02-02T00:08:51;6.00;92.70
52787;DHT22;38661;53.152;5.846;2023-02-02T00:11:18;6.00;92.60
52787;DHT22;38661;53.152;5.846;2023-02-02T00:13:44;6.00;92.50
52787;DHT22;38661;53.152;5.846;2023-02-02T00:18:47;6.10;92.50
52787;DHT22;38661;53.152;5.846;2023-02-02T00:21:13;6.10;92.30
52787;DHT22;38661;53.152;5.846;2023-02-02T00:23:39;6.10;92.30
52787;DHT22;38661;53.152;5.846;2023-02-02T00:26:05;6.00;92.40
52787;DHT22;38661;53.152;5.846;2023-02-02T00:28:30;6.00;92.40
52787;DHT22;38661;53.152;5.846;2023-02-02T00:30:56;6.00;92.40
52787;DHT22;38661;53.152;5.846;2023-02-02T00:33:22;6.00;92.40
52787;DHT22;38661;53.152;5.846;2023-02-02T00:35:47;6.00;92.40
52787;DHT22;38661;53.152;5.846;2023-02-02T00:38:13;6.00;92.40
52787;DHT22;38661;53.152;5.846;2023-02-02T00:40:39;6.00;92.20
52787;DHT22;38661;53.152;5.846;2023-02-02T00:43:04;6.00;92.20
52787;DHT22;38661;53.152;5.846;2023-02-02T00:45:30;6.00;92.10
52787;DHT22;38661;53.152;5.846;2023-02-02T00:47:56;6.00;92.10
52787;DHT22;38661;53.152;5.846;2023-02-02T00:50:21;6.00;92.10
52787;DHT22;38661;53.152;5.846;2023-02-02T00:52:48;5.90;92.20
52787;DHT22;38661;53.152;5.846;2023-02-02T00:55:14;6.00;92.20
52787;DHT22;38661;53.152;5.846;2023-02-02T00:57:40;6.00;92.20
52787;DHT22;38661;53.152;5.846;2023-02-02T01:00:15;6.00;92.30
52787;DHT22;38661;53.152;5.846;2023-02-02T01:02:42;6.10;92.30
52787;DHT22;38661;53.152;5.846;2023-02-02T01:05:09;6.10;92.30
52787;DHT22;38661;53.152;5.846;2023-02-02T01:07:35;6.00;92.20
52787;DHT22;38661;53.152;5.846;2023-02-02T01:10:01;6.00;92.40
52787;DHT22;38661;53.152;5.846;2023-02-02T01:12:26;6.00;92.50
52787;DHT22;38661;53.152;5.846;2023-02-02T01:14:52;6.00;92.50
52787;DHT22;38661;53.152;5.846;2023-02-02T01:17:18;6.00;92.70
52787;DHT22;38661;53.152;5.846;2023-02-02T01:19:44;6.00;92.80
52787;DHT22;38661;53.152;5.846;2023-02-02T01:22:09;6.00;93.10
52787;DHT22;38661;53.152;5.846;2023-02-02T01:24:35;6.10;93.20
52787;DHT22;38661;53.152;5.846;2023-02-02T01:27:01;6.10;93.30
52787;DHT22;38661;53.152;5.846;2023-02-02T01:29:26;6.10;93.40
52787;DHT22;38661;53.152;5.846;2023-02-02T01:31:52;6.10;93.70
52787;DHT22;38661;53.152;5.846;2023-02-02T01:34:18;6.10;93.90
52787;DHT22;38661;53.152;5.846;2023-02-02T01:36:44;6.20;93.90
52787;DHT22;38661;53.152;5.846;2023-02-02T01:39:09;6.10;93.90
52787;DHT22;38661;53.152;5.846;2023-02-02T01:41:35;6.10;94.10
52787;DHT22;38661;53.152;5.846;2023-02-02T01:44:03;6.20;94.10
52787;DHT22;38661;53.152;5.846;2023-02-02T01:46:34;6.30;94.30
52787;DHT22;38661;53.152;5.846;2023-02-02T01:51:46;6.30;94.30
52787;DHT22;38661;53.152;5.846;2023-02-02T01:54:50;6.30;94.30
52787;DHT22;38661;53.152;5.846;2023-02-02T01:57:29;6.30;94.30
52787;DHT22;38661;53.152;5.846;2023-02-02T01:59:59;6.30;94.30
52787;DHT22;38661;53.152;5.846;2023-02-02T02:02:27;6.30;94.30
52787;DHT22;38661;53.152;5.846;2023-02-02T02:04:54;6.30;94.40
52787;DHT22;38661;53.152;5.846;2023-02-02T02:07:21;6.40;94.50
52787;DHT22;38661;53.152;5.846;2023-02-02T02:09:47;6.40;94.30
52787;DHT22;38661;53.152;5.846;2023-02-02T02:12:14;6.40;94.40
52787;DHT22;38661;53.152;5.846;2023-02-02T02:14:45;6.40;94.50
52787;DHT22;38661;53.152;5.846;2023-02-02T02:34:32;6.50;92.70
52787;DHT22;38661;53.152;5.846;2023-02-02T02:37:09;6.60;92.80
52787;DHT22;38661;53.152;5.846;2023-02-02T02:39:54;6.60;93.00
52787;DHT22;38661;53.152;5.846;2023-02-02T02:42:24;6.70;93.20
52787;DHT22;38661;53.152;5.846;2023-02-02T02:44:53;6.60;93.30
52787;DHT22;38661;53.152;5.846;2023-02-02T02:47:21;6.60;93.70
52787;DHT22;38661;53.152;5.846;2023-02-02T02:49:48;6.70;93.80
52787;DHT22;38661;53.152;5.846;2023-02-02T02:52:14;6.70;93.70
52787;DHT22;38661;53.152;5.846;2023-02-02T02:59:55;6.70;93.50
52787;DHT22;38661;53.152;5.846;2023-02-02T03:08:23;6.70;93.90
52787;DHT22;38661;53.152;5.846;2023-02-02T03:10:49;6.70;93.80
52787;DHT22;38661;53.152;5.846;2023-02-02T03:13:15;6.70;93.80
52787;DHT22;38661;53.152;5.846;2023-02-02T03:15:43;6.60;93.70
52787;DHT22;38661;53.152;5.846;2023-02-02T03:18:13;6.60;93.50
52787;DHT22;38661;53.152;5.846;2023-02-02T03:20:41;6.60;93.10
52787;DHT22;38661;53.152;5.846;2023-02-02T03:23:07;6.60;93.10
52787;DHT22;38661;53.152;5.846;2023-02-02T03:25:33;6.50;93.20
52787;DHT22;38661;53.152;5.846;2023-02-02T03:27:59;6.50;93.30
52787;DHT22;38661;53.152;5.846;2023-02-02T03:30:25;6.50;93.60
52787;DHT22;38661;53.152;5.846;2023-02-02T03:32:51;6.40;93.60
52787;DHT22;38661;53.152;5.846;2023-02-02T03:35:17;6.50;93.80
52787;DHT22;38661;53.152;5.846;2023-02-02T03:37:45;6.40;94.00
52787;DHT22;38661;53.152;5.846;2023-02-02T03:40:11;6.40;94.30
52787;DHT22;38661;53.152;5.846;2023-02-02T03:42:36;6.40;94.40
52787;DHT22;38661;53.152;5.846;2023-02-02T03:45:02;6.40;94.40
52787;DHT22;38661;53.152;5.846;2023-02-02T03:47:28;6.40;94.60
52787;DHT22;38661;53.152;5.846;2023-02-02T03:49:54;6.40;94.80
52787;DHT22;38661;53.152;5.846;2023-02-02T03:52:20;6.40;94.80
52787;DHT22;38661;53.152;5.846;2023-02-02T03:54:45;6.30;94.80
52787;DHT22;38661;53.152;5.846;2023-02-02T03:57:11;6.30;95.00
52787;DHT22;38661;53.152;5.846;2023-02-02T03:59:37;6.30;95.10
52787;DHT22;38661;53.152;5.846;2023-02-02T04:02:02;6.20;95.20
52787;DHT22;38661;53.152;5.846;2023-02-02T04:04:28;6.30;95.30
52787;DHT22;38661;53.152;5.846;2023-02-02T04:06:54;6.20;95.40
52787;DHT22;38661;53.152;5.846;2023-02-02T04:09:20;6.10;95.10
52787;DHT22;38661;53.152;5.846;2023-02-02T04:11:46;6.10;95.20
52787;DHT22;38661;53.152;5.846;2023-02-02T04:14:11;6.00;95.00
52787;DHT22;38661;53.152;5.846;2023-02-02T04:16:37;6.00;95.10
52787;DHT22;38661;53.152;5.846;2023-02-02T04:19:03;6.00;94.90
52787;DHT22;38661;53.152;5.846;2023-02-02T04:21:29;6.00;94.60
52787;DHT22;38661;53.152;5.846;2023-02-02T04:23:55;5.90;94.40
52787;DHT22;38661;53.152;5.846;2023-02-02T04:26:21;5.90;94.40
52787;DHT22;38661;53.152;5.846;2023-02-02T04:28:50;5.90;94.40
52787;DHT22;38661;53.152;5.846;2023-02-02T04:31:16;5.90;94.40
52787;DHT22;38661;53.152;5.846;2023-02-02T04:33:42;5.90;94.30
52787;DHT22;38661;53.152;5.846;2023-02-02T04:36:08;5.80;94.30
52787;DHT22;38661;53.152;5.846;2023-02-02T04:38:35;5.80;94.20
52787;DHT22;38661;53.152;5.846;2023-02-02T04:41:08;5.80;94.10
52787;DHT22;38661;53.152;5.846;2023-02-02T04:43:35;5.80;94.10
52787;DHT22;38661;53.152;5.846;2023-02-02T04:46:01;5.70;94.10
52787;DHT22;38661;53.152;5.846;2023-02-02T04:48:26;5.70;94.30
52787;DHT22;38661;53.152;5.846;2023-02-02T04:50:59;5.70;94.40
52787;DHT22;38661;53.152;5.846;2023-02-02T04:53:25;5.70;94.60
52787;DHT22;38661;53.152;5.846;2023-02-02T04:55:51;5.70;94.60
52787;DHT22;38661;53.152;5.846;2023-02-02T04:58:17;5.60;94.50
52787;DHT22;38661;53.152;5.846;2023-02-02T05:00:43;5.60;94.70
52787;DHT22;38661;53.152;5.846;2023-02-02T05:03:08;5.60;94.80
52787;DHT22;38661;53.152;5.846;2023-02-02T05:05:34;5.60;95.00
52787;DHT22;38661;53.152;5.846;2023-02-02T05:08:00;5.60;95.00
52787;DHT22;38661;53.152;5.846;2023-02-02T05:10:26;5.60;95.10
52787;DHT22;38661;53.152;5.846;2023-02-02T05:12:52;5.60;95.20
52787;DHT22;38661;53.152;5.846;2023-02-02T05:15:18;5.60;95.20
52787;DHT22;38661;53.152;5.846;2023-02-02T05:17:46;5.60;95.30
52787;DHT22;38661;53.152;5.846;2023-02-02T05:20:12;5.60;95.40
52787;DHT22;38661;53.152;5.846;2023-02-02T05:22:38;5.60;95.50
52787;DHT22;38661;53.152;5.846;2023-02-02T05:25:05;5.60;95.50
52787;DHT22;38661;53.152;5.846;2023-02-02T05:27:31;5.60;95.60
52787;DHT22;38661;53.152;5.846;2023-02-02T05:29:57;5.60;95.70
52787;DHT22;38661;53.152;5.846;2023-02-02T05:32:23;5.60;95.70
52787;DHT22;38661;53.152;5.846;2023-02-02T05:34:49;5.60;95.80
52787;DHT22;38661;53.152;5.846;2023-02-02T05:37:15;5.60;95.80
52787;DHT22;38661;53.152;5.846;2023-02-02T05:39:40;5.70;96.00
52787;DHT22;38661;53.152;5.846;2023-02-02T05:42:06;5.60;95.90
52787;DHT22;38661;53.152;5.846;2023-02-02T05:44:32;5.60;96.10
52787;DHT22;38661;53.152;5.846;2023-02-02T05:46:57;5.60;96.10
52787;DHT22;38661;53.152;5.846;2023-02-02T05:49:23;5.60;96.20
52787;DHT22;38661;53.152;5.846;2023-02-02T05:51:51;5.70;96.30
52787;DHT22;38661;53.152;5.846;2023-02-02T05:54:18;5.60;96.30
52787;DHT22;38661;53.152;5.846;2023-02-02T05:56:50;5.70;96.30
52787;DHT22;38661;53.152;5.846;2023-02-02T05:59:17;5.70;96.30
52787;DHT22;38661;53.152;5.846;2023-02-02T06:01:46;5.70;96.30
52787;DHT22;38661;53.152;5.846;2023-02-02T06:04:12;5.70;96.40
52787;DHT22;38661;53.152;5.846;2023-02-02T06:06:38;5.70;96.40
52787;DHT22;38661;53.152;5.846;2023-02-02T06:09:05;5.60;96.30
52787;DHT22;38661;53.152;5.846;2023-02-02T06:11:31;5.60;96.40
52787;DHT22;38661;53.152;5.846;2023-02-02T06:13:57;5.60;96.40
52787;DHT22;38661;53.152;5.846;2023-02-02T06:16:23;5.60;96.50
52787;DHT22;38661;53.152;5.846;2023-02-02T06:18:49;5.60;96.50
52787;DHT22;38661;53.152;5.846;2023-02-02T06:21:15;5.60;96.60
52787;DHT22;38661;53.152;5.846;2023-02-02T06:23:41;5.60;96.60
52787;DHT22;38661;53.152;5.846;2023-02-02T06:26:14;5.60;96.70
52787;DHT22;38661;53.152;5.846;2023-02-02T06:28:40;5.60;96.70
52787;DHT22;38661;53.152;5.846;2023-02-02T06:31:07;5.60;96.70
52787;DHT22;38661;53.152;5.846;2023-02-02T06:33:33;5.60;96.80
52787;DHT22;38661;53.152;5.846;2023-02-02T06:36:00;5.60;96.80
52787;DHT22;38661;53.152;5.846;2023-02-02T06:38:26;5.60;96.80
52787;DHT22;38661;53.152;5.846;2023-02-02T06:40:52;5.60;96.90
52787;DHT22;38661;53.152;5.846;2023-02-02T06:43:18;5.60;96.80
52787;DHT22;38661;53.152;5.846;2023-02-02T06:45:44;5.60;96.90
52787;DHT22;38661;53.152;5.846;2023-02-02T06:48:09;5.60;96.90
52787;DHT22;38661;53.152;5.846;2023-02-02T06:50:38;5.60;97.00
52787;DHT22;38661;53.152;5.846;2023-02-02T06:53:04;5.60;97.10
52787;DHT22;38661;53.152;5.846;2023-02-02T06:55:30;5.60;97.10
52787;DHT22;38661;53.152;5.846;2023-02-02T06:57:57;5.60;97.10
52787;DHT22;38661;53.152;5.846;2023-02-02T07:00:23;5.60;97.10
52787;DHT22;38661;53.152;5.846;2023-02-02T07:02:49;5.60;97.10
52787;DHT22;38661;53.152;5.846;2023-02-02T07:05:15;5.60;97.10
52787;DHT22;38661;53.152;5.846;2023-02-02T07:07:44;5.60;97.00
52787;DHT22;38661;53.152;5.846;2023-02-02T07:10:10;5.60;97.10
52787;DHT22;38661;53.152;5.846;2023-02-02T07:12:36;5.60;97.20
52787;DHT22;38661;53.152;5.846;2023-02-02T07:15:02;5.60;97.10
52787;DHT22;38661;53.152;5.846;2023-02-02T07:17:28;5.60;97.10
52787;DHT22;38661;53.152;5.846;2023-02-02T07:19:54;5.60;97.10
52787;DHT22;38661;53.152;5.846;2023-02-02T07:22:19;5.60;97.30
52787;DHT22;38661;53.152;5.846;2023-02-02T07:24:45;5.60;97.30
52787;DHT22;38661;53.152;5.846;2023-02-02T07:27:11;5.60;97.20
52787;DHT22;38661;53.152;5.846;2023-02-02T07:29:36;5.60;97.20
52787;DHT22;38661;53.152;5.846;2023-02-02T07:32:02;5.60;97.20
52787;DHT22;38661;53.152;5.846;2023-02-02T07:34:28;5.60;97.20
52787;DHT22;38661;53.152;5.846;2023-02-02T07:36:53;5.60;97.20
52787;DHT22;38661;53.152;5.846;2023-02-02T07:39:19;5.60;97.30
52787;DHT22;38661;53.152;5.846;2023-02-02T07:41:45;5.60;97.30
52787;DHT22;38661;53.152;5.846;2023-02-02T07:44:14;5.60;97.30
52787;DHT22;38661;53.152;5.846;2023-02-02T07:46:42;5.60;97.30
52787;DHT22;38661;53.152;5.846;2023-02-02T07:49:12;5.60;97.30
52787;DHT22;38661;53.152;5.846;2023-02-02T07:51:38;5.60;97.30
52787;DHT22;38661;53.152;5.846;2023-02-02T07:54:04;5.60;97.40
52787;DHT22;38661;53.152;5.846;2023-02-02T07:56:30;5.60;97.40
52787;DHT22;38661;53.152;5.846;2023-02-02T07:58:56;5.60;97.40
52787;DHT22;38661;53.152;5.846;2023-02-02T08:01:23;5.60;97.40
52787;DHT22;38661;53.152;5.846;2023-02-02T08:03:51;5.60;97.40
52787;DHT22;38661;53.152;5.846;2023-02-02T08:06:22;5.60;97.40
52787;DHT22;38661;53.152;5.846;2023-02-02T08:08:49;5.60;97.40
52787;DHT22;38661;53.152;5.846;2023-02-02T08:11:17;5.60;97.50
52787;DHT22;38661;53.152;5.846;2023-02-02T08:13:44;5.70;97.40
52787;DHT22;38661;53.152;5.846;2023-02-02T08:16:12;5.70;97.50
52787;DHT22;38661;53.152;5.846;2023-02-02T08:18:38;5.70;97.50
52787;DHT22;38661;53.152;5.846;2023-02-02T08:21:05;5.70;97.50
52787;DHT22;38661;53.152;5.846;2023-02-02T08:23:33;5.70;97.60
52787;DHT22;38661;53.152;5.846;2023-02-02T08:26:12;5.70;97.50
52787;DHT22;38661;53.152;5.846;2023-02-02T08:28:39;5.70;97.50
52787;DHT22;38661;53.152;5.846;2023-02-02T08:31:47;5.70;97.60
52787;DHT22;38661;53.152;5.846;2023-02-02T08:33:54;5.70;97.60
52787;DHT22;38661;53.152;5.846;2023-02-02T08:36:23;5.70;97.60
52787;DHT22;38661;53.152;5.846;2023-02-02T08:38:49;5.80;97.70
52787;DHT22;38661;53.152;5.846;2023-02-02T08:41:17;5.70;97.70
52787;DHT22;38661;53.152;5.846;2023-02-02T08:43:43;5.80;97.70
52787;DHT22;38661;53.152;5.846;2023-02-02T08:46:11;5.70;97.70
52787;DHT22;38661;53.152;5.846;2023-02-02T08:48:37;5.80;97.80
52787;DHT22;38661;53.152;5.846;2023-02-02T08:51:04;5.80;97.80
52787;DHT22;38661;53.152;5.846;2023-02-02T08:53:31;5.80;97.60
52787;DHT22;38661;53.152;5.846;2023-02-02T08:55:58;5.80;97.70
52787;DHT22;38661;53.152;5.846;2023-02-02T08:58:25;5.80;97.70
52787;DHT22;38661;53.152;5.846;2023-02-02T09:00:51;5.80;97.70
52787;DHT22;38661;53.152;5.846;2023-02-02T09:03:16;5.80;97.70
52787;DHT22;38661;53.152;5.846;2023-02-02T09:05:42;5.90;97.70
52787;DHT22;38661;53.152;5.846;2023-02-02T09:08:09;5.90;97.70
52787;DHT22;38661;53.152;5.846;2023-02-02T09:10:36;5.90;97.70
52787;DHT22;38661;53.152;5.846;2023-02-02T09:13:02;5.90;97.70
52787;DHT22;38661;53.152;5.846;2023-02-02T09:15:28;5.90;97.80
52787;DHT22;38661;53.152;5.846;2023-02-02T09:17:54;5.90;97.70
52787;DHT22;38661;53.152;5.846;2023-02-02T09:20:20;6.00;97.70
52787;DHT22;38661;53.152;5.846;2023-02-02T09:22:45;6.00;97.80
52787;DHT22;38661;53.152;5.846;2023-02-02T09:25:11;6.00;97.70
52787;DHT22;38661;53.152;5.846;2023-02-02T09:27:37;6.10;97.70
52787;DHT22;38661;53.152;5.846;2023-02-02T09:30:06;6.10;97.70
52787;DHT22;38661;53.152;5.846;2023-02-02T09:32:32;6.10;97.80
52787;DHT22;38661;53.152;5.846;2023-02-02T09:34:58;6.10;97.90
52787;DHT22;38661;53.152;5.846;2023-02-02T09:37:27;6.10;97.90
52787;DHT22;38661;53.152;5.846;2023-02-02T09:39:53;6.10;97.80
52787;DHT22;38661;53.152;5.846;2023-02-02T09:45:53;6.20;97.80
52787;DHT22;38661;53.152;5.846;2023-02-02T09:48:39;6.20;97.80
52787;DHT22;38661;53.152;5.846;2023-02-02T09:51:12;6.30;97.80
52787;DHT22;38661;53.152;5.846;2023-02-02T09:53:54;6.30;97.70
52787;DHT22;38661;53.152;5.846;2023-02-02T09:56:29;6.30;97.80
52787;DHT22;38661;53.152;5.846;2023-02-02T09:58:58;6.30;97.80
52787;DHT22;38661;53.152;5.846;2023-02-02T10:01:37;6.30;97.80
52787;DHT22;38661;53.152;5.846;2023-02-02T10:06:44;6.30;97.80
52787;DHT22;38661;53.152;5.846;2023-02-02T10:09:39;6.30;97.90
52787;DHT22;38661;53.152;5.846;2023-02-02T10:12:34;6.30;97.90
52787;DHT22;38661;53.152;5.846;2023-02-02T10:20:40;6.40;97.80
52787;DHT22;38661;53.152;5.846;2023-02-02T10:23:39;6.30;97.90
52787;DHT22;38661;53.152;5.846;2023-02-02T10:26:21;6.40;97.90
52787;DHT22;38661;53.152;5.846;2023-02-02T10:32:01;6.40;97.90
52787;DHT22;38661;53.152;5.846;2023-02-02T10:34:52;6.40;97.90
52787;DHT22;38661;53.152;5.846;2023-02-02T10:37:38;6.30;97.90
52787;DHT22;38661;53.152;5.846;2023-02-02T10:40:26;6.40;97.90
52787;DHT22;38661;53.152;5.846;2023-02-02T10:45:52;6.40;97.90
52787;DHT22;38661;53.152;5.846;2023-02-02T10:48:21;6.40;97.90
52787;DHT22;38661;53.152;5.846;2023-02-02T10:50:51;6.50;97.90
52787;DHT22;38661;53.152;5.846;2023-02-02T10:53:19;6.40;97.90
52787;DHT22;38661;53.152;5.846;2023-02-02T10:55:50;6.50;97.90
52787;DHT22;38661;53.152;5.846;2023-02-02T10:59:00;6.50;98.00
52787;DHT22;38661;53.152;5.846;2023-02-02T11:01:23;6.50;97.90
52787;DHT22;38661;53.152;5.846;2023-02-02T11:03:49;6.50;97.90
52787;DHT22;38661;53.152;5.846;2023-02-02T11:06:35;6.50;97.90
52787;DHT22;38661;53.152;5.846;2023-02-02T11:09:22;6.50;97.90
52787;DHT22;38661;53.152;5.846;2023-02-02T11:11:56;6.50;97.90
52787;DHT22;38661;53.152;5.846;2023-02-02T11:14:55;6.50;97.90
52787;DHT22;38661;53.152;5.846;2023-02-02T11:17:25;6.60;97.90
52787;DHT22;38661;53.152;5.846;2023-02-02T11:19:51;6.50;98.00
52787;DHT22;38661;53.152;5.846;2023-02-02T11:22:33;6.50;98.00
52787;DHT22;38661;53.152;5.846;2023-02-02T11:25:26;6.50;98.00
52787;DHT22;38661;53.152;5.846;2023-02-02T11:27:56;6.50;98.00
52787;DHT22;38661;53.152;5.846;2023-02-02T11:30:31;6.50;98.00
52787;DHT22;38661;53.152;5.846;2023-02-02T11:32:57;6.60;98.00
52787;DHT22;38661;53.152;5.846;2023-02-02T11:35:25;6.60;98.10
52787;DHT22;38661;53.152;5.846;2023-02-02T11:38:14;6.60;98.00
52787;DHT22;38661;53.152;5.846;2023-02-02T11:41:02;6.60;98.00
52787;DHT22;38661;53.152;5.846;2023-02-02T11:43:32;6.60;97.90
52787;DHT22;38661;53.152;5.846;2023-02-02T11:46:01;6.60;97.90
52787;DHT22;38661;53.152;5.846;2023-02-02T11:48:35;6.60;98.00
52787;DHT22;38661;53.152;5.846;2023-02-02T11:51:02;6.60;98.00
52787;DHT22;38661;53.152;5.846;2023-02-02T11:53:46;6.50;98.00
52787;DHT22;38661;53.152;5.846;2023-02-02T11:56:22;6.50;98.00
52787;DHT22;38661;53.152;5.846;2023-02-02T11:58:54;6.50;98.00
52787;DHT22;38661;53.152;5.846;2023-02-02T12:01:36;6.50;98.00
52787;DHT22;38661;53.152;5.846;2023-02-02T12:04:23;6.50;98.00
52787;DHT22;38661;53.152;5.846;2023-02-02T12:06:48;6.50;98.10
52787;DHT22;38661;53.152;5.846;2023-02-02T12:09:22;6.50;98.10
52787;DHT22;38661;53.152;5.846;2023-02-02T12:17:28;6.50;98.10
52787;DHT22;38661;53.152;5.846;2023-02-02T12:22:38;6.60;98.20
52787;DHT22;38661;53.152;5.846;2023-02-02T12:31:05;6.60;98.30
52787;DHT22;38661;53.152;5.846;2023-02-02T12:45:26;6.80;98.20
52787;DHT22;38661;53.152;5.846;2023-02-02T12:48:26;6.90;98.10
52787;DHT22;38661;53.152;5.846;2023-02-02T12:51:30;7.00;98.00
52787;DHT22;38661;53.152;5.846;2023-02-02T12:54:04;7.10;98.00
52787;DHT22;38661;53.152;5.846;2023-02-02T12:56:43;7.10;98.00
52787;DHT22;38661;53.152;5.846;2023-02-02T13:07:23;7.30;97.70
52787;DHT22;38661;53.152;5.846;2023-02-02T13:10:01;7.30;97.70
52787;DHT22;38661;53.152;5.846;2023-02-02T13:12:29;7.40;97.60
52787;DHT22;38661;53.152;5.846;2023-02-02T13:15:02;7.40;97.70
52787;DHT22;38661;53.152;5.846;2023-02-02T13:17:38;7.30;97.60
52787;DHT22;38661;53.152;5.846;2023-02-02T13:20:17;7.40;97.70
52787;DHT22;38661;53.152;5.846;2023-02-02T13:22:46;7.40;97.60
52787;DHT22;38661;53.152;5.846;2023-02-02T13:25:22;7.40;97.60
52787;DHT22;38661;53.152;5.846;2023-02-02T13:27:50;7.30;97.50
52787;DHT22;38661;53.152;5.846;2023-02-02T13:30:33;7.40;97.50
52787;DHT22;38661;53.152;5.846;2023-02-02T13:33:24;7.40;97.60
52787;DHT22;38661;53.152;5.846;2023-02-02T13:38:20;7.50;97.50
52787;DHT22;38661;53.152;5.846;2023-02-02T13:40:46;7.40;97.50
52787;DHT22;38661;53.152;5.846;2023-02-02T13:43:40;7.40;97.50
52787;DHT22;38661;53.152;5.846;2023-02-02T13:46:37;7.40;97.50
52787;DHT22;38661;53.152;5.846;2023-02-02T13:52:04;7.40;97.60
52787;DHT22;38661;53.152;5.846;2023-02-02T14:05:07;7.40;97.60
52787;DHT22;38661;53.152;5.846;2023-02-02T14:07:45;7.50;97.70
52787;DHT22;38661;53.152;5.846;2023-02-02T14:10:27;7.40;97.70
52787;DHT22;38661;53.152;5.846;2023-02-02T14:12:54;7.50;97.80
52787;DHT22;38661;53.152;5.846;2023-02-02T14:15:38;7.50;97.70
52787;DHT22;38661;53.152;5.846;2023-02-02T14:18:05;7.50;97.70
52787;DHT22;38661;53.152;5.846;2023-02-02T14:20:50;7.40;97.70
52787;DHT22;38661;53.152;5.846;2023-02-02T14:23:48;7.40;97.70
52787;DHT22;38661;53.152;5.846;2023-02-02T14:27:04;7.50;97.60
52787;DHT22;38661;53.152;5.846;2023-02-02T14:32:18;7.50;97.40
52787;DHT22;38661;53.152;5.846;2023-02-02T14:34:52;7.50;97.40
52787;DHT22;38661;53.152;5.846;2023-02-02T14:49:10;7.50;97.40
52787;DHT22;38661;53.152;5.846;2023-02-02T14:51:50;7.60;97.30
52787;DHT22;38661;53.152;5.846;2023-02-02T14:54:40;7.60;97.10
52787;DHT22;38661;53.152;5.846;2023-02-02T14:57:20;7.60;97.20
52787;DHT22;38661;53.152;5.846;2023-02-02T14:59:47;7.60;97.10
52787;DHT22;38661;53.152;5.846;2023-02-02T15:02:34;7.60;97.10
52787;DHT22;38661;53.152;5.846;2023-02-02T15:13:22;7.60;97.30
52787;DHT22;38661;53.152;5.846;2023-02-02T15:16:02;7.60;97.20
52787;DHT22;38661;53.152;5.846;2023-02-02T15:18:36;7.60;97.30
52787;DHT22;38661;53.152;5.846;2023-02-02T15:21:04;7.60;97.30
52787;DHT22;38661;53.152;5.846;2023-02-02T15:23:41;7.70;97.30
52787;DHT22;38661;53.152;5.846;2023-02-02T15:26:20;7.60;97.20
52787;DHT22;38661;53.152;5.846;2023-02-02T15:29:05;7.60;97.30
52787;DHT22;38661;53.152;5.846;2023-02-02T15:31:47;7.50;97.40
52787;DHT22;38661;53.152;5.846;2023-02-02T15:34:41;7.60;97.60
52787;DHT22;38661;53.152;5.846;2023-02-02T15:37:13;7.60;97.50
52787;DHT22;38661;53.152;5.846;2023-02-02T15:39:48;7.60;97.50
52787;DHT22;38661;53.152;5.846;2023-02-02T15:42:23;7.70;97.50
52787;DHT22;38661;53.152;5.846;2023-02-02T15:45:37;7.60;97.60
52787;DHT22;38661;53.152;5.846;2023-02-02T15:48:28;7.60;97.60
52787;DHT22;38661;53.152;5.846;2023-02-02T15:51:01;7.60;97.50
52787;DHT22;38661;53.152;5.846;2023-02-02T15:58:55;7.60;97.60
52787;DHT22;38661;53.152;5.846;2023-02-02T16:01:22;7.60;97.40
52787;DHT22;38661;53.152;5.846;2023-02-02T16:04:22;7.60;97.50
52787;DHT22;38661;53.152;5.846;2023-02-02T16:06:50;7.60;97.40
52787;DHT22;38661;53.152;5.846;2023-02-02T16:09:25;7.60;97.30
52787;DHT22;38661;53.152;5.846;2023-02-02T16:11:52;7.60;97.30
52787;DHT22;38661;53.152;5.846;2023-02-02T16:14:18;7.60;97.40
52787;DHT22;38661;53.152;5.846;2023-02-02T16:16:45;7.60;97.40
52787;DHT22;38661;53.152;5.846;2023-02-02T16:21:51;7.60;97.30
52787;DHT22;38661;53.152;5.846;2023-02-02T16:24:23;7.60;97.30
52787;DHT22;38661;53.152;5.846;2023-02-02T16:26:52;7.60;97.20
52787;DHT22;38661;53.152;5.846;2023-02-02T16:29:19;7.60;97.20
52787;DHT22;38661;53.152;5.846;2023-02-02T16:31:46;7.60;97.20
52787;DHT22;38661;53.152;5.846;2023-02-02T16:39:39;7.50;97.20
52787;DHT22;38661;53.152;5.846;2023-02-02T16:44:47;7.60;97.30
52787;DHT22;38661;53.152;5.846;2023-02-02T16:50:29;7.60;97.10
52787;DHT22;38661;53.152;5.846;2023-02-02T16:53:01;7.60;97.00
52787;DHT22;38661;53.152;5.846;2023-02-02T16:55:30;7.60;97.00
52787;DHT22;38661;53.152;5.846;2023-02-02T16:57:57;7.60;97.00
52787;DHT22;38661;53.152;5.846;2023-02-02T17:00:28;7.60;96.90
52787;DHT22;38661;53.152;5.846;2023-02-02T17:03:08;7.60;96.90
52787;DHT22;38661;53.152;5.846;2023-02-02T17:05:48;7.60;96.90
52787;DHT22;38661;53.152;5.846;2023-02-02T17:08:36;7.60;97.00
52787;DHT22;38661;53.152;5.846;2023-02-02T17:11:24;7.50;97.00
52787;DHT22;38661;53.152;5.846;2023-02-02T17:13:50;7.60;97.00
52787;DHT22;38661;53.152;5.846;2023-02-02T17:16:18;7.60;96.90
52787;DHT22;38661;53.152;5.846;2023-02-02T17:18:45;7.60;96.90
52787;DHT22;38661;53.152;5.846;2023-02-02T17:21:19;7.60;96.90
52787;DHT22;38661;53.152;5.846;2023-02-02T17:23:46;7.60;96.90
52787;DHT22;38661;53.152;5.846;2023-02-02T17:26:14;7.60;96.90
52787;DHT22;38661;53.152;5.846;2023-02-02T17:28:41;7.60;96.80
52787;DHT22;38661;53.152;5.846;2023-02-02T17:31:09;7.60;96.80
52787;DHT22;38661;53.152;5.846;2023-02-02T17:33:36;7.60;96.80
52787;DHT22;38661;53.152;5.846;2023-02-02T17:36:02;7.60;96.60
52787;DHT22;38661;53.152;5.846;2023-02-02T17:38:29;7.60;96.60
52787;DHT22;38661;53.152;5.846;2023-02-02T17:40:57;7.60;96.60
52787;DHT22;38661;53.152;5.846;2023-02-02T17:43:23;7.70;96.70
52787;DHT22;38661;53.152;5.846;2023-02-02T17:45:48;7.70;96.50
52787;DHT22;38661;53.152;5.846;2023-02-02T17:48:15;7.70;96.60
52787;DHT22;38661;53.152;5.846;2023-02-02T17:50:41;7.70;96.70
52787;DHT22;38661;53.152;5.846;2023-02-02T17:53:16;7.80;96.50
52787;DHT22;38661;53.152;5.846;2023-02-02T17:55:42;7.70;96.50
52787;DHT22;38661;53.152;5.846;2023-02-02T17:58:10;7.70;96.40
52787;DHT22;38661;53.152;5.846;2023-02-02T18:00:38;7.70;96.40
52787;DHT22;38661;53.152;5.846;2023-02-02T18:03:24;7.80;96.30
52787;DHT22;38661;53.152;5.846;2023-02-02T18:05:50;7.80;96.30
52787;DHT22;38661;53.152;5.846;2023-02-02T18:08:16;7.80;96.10
52787;DHT22;38661;53.152;5.846;2023-02-02T18:10:42;7.90;96.10
52787;DHT22;38661;53.152;5.846;2023-02-02T18:13:17;7.90;96.00
52787;DHT22;38661;53.152;5.846;2023-02-02T18:15:47;8.00;95.80
52787;DHT22;38661;53.152;5.846;2023-02-02T18:18:13;7.90;95.90
52787;DHT22;38661;53.152;5.846;2023-02-02T18:20:43;8.00;95.90
52787;DHT22;38661;53.152;5.846;2023-02-02T18:23:09;8.00;95.80
52787;DHT22;38661;53.152;5.846;2023-02-02T18:25:36;8.00;95.50
52787;DHT22;38661;53.152;5.846;2023-02-02T18:28:02;8.00;95.70
52787;DHT22;38661;53.152;5.846;2023-02-02T18:30:28;8.10;95.50